sensor_id;sensor_type;location;lat;lon;timestamp;P1;durP1;ratioP1;P2;durP2;ratioP2
43248;SDS011;29216;51.248;6.808;2022-10-16T00:00:42;7.95;;;3.28;;
43248;SDS011;29216;51.248;6.808;2022-10-16T00:03:09;5.35;;;3.00;;
43248;SDS011;29216;51.248;6.808;2022-10-16T00:05:39;5.57;;;3.38;;
43248;SDS011;29216;51.248;6.808;2022-10-16T00:08:07;6.70;;;2.97;;
43248;SDS011;29216;51.248;6.808;2022-10-16T00:10:34;7.72;;;3.67;;
43248;SDS011;29216;51.248;6.808;2022-10-16T00:13:00;4.63;;;2.88;;
43248;SDS011;29216;51.248;6.808;2022-10-16T00:15:25;5.75;;;2.90;;
43248;SDS011;29216;51.248;6.808;2022-10-16T00:17:51;4.43;;;2.80;;
43248;SDS011;29216;51.248;6.808;2022-10-16T00:20:17;5.10;;;3.20;;
43248;SDS011;29216;51.248;6.808;2022-10-16T00:22:43;7.82;;;3.72;;
43248;SDS011;29216;51.248;6.808;2022-10-16T00:25:08;7.70;;;3.50;;
43248;SDS011;29216;51.248;6.808;2022-10-16T00:27:34;4.57;;;2.97;;
43248;SDS011;29216;51.248;6.808;2022-10-16T00:30:00;5.88;;;3.22;;
43248;SDS011;29216;51.248;6.808;2022-10-16T00:32:25;7.13;;;3.45;;
43248;SDS011;29216;51.248;6.808;2022-10-16T00:34:51;8.63;;;3.47;;
43248;SDS011;29216;51.248;6.808;2022-10-16T00:37:19;4.28;;;3.30;;
43248;SDS011;29216;51.248;6.808;2022-10-16T00:39:45;7.30;;;2.88;;
43248;SDS011;29216;51.248;6.808;2022-10-16T00:42:15;6.60;;;3.47;;
43248;SDS011;29216;51.248;6.808;2022-10-16T00:47:39;7.45;;;3.83;;
43248;SDS011;29216;51.248;6.808;2022-10-16T00:52:39;6.85;;;4.15;;
43248;SDS011;29216;51.248;6.808;2022-10-16T00:55:08;3.80;;;2.90;;
43248;SDS011;29216;51.248;6.808;2022-10-16T00:57:35;4.47;;;2.80;;
43248;SDS011;29216;51.248;6.808;2022-10-16T01:00:01;6.00;;;3.15;;
43248;SDS011;29216;51.248;6.808;2022-10-16T01:02:31;7.55;;;3.13;;
43248;SDS011;29216;51.248;6.808;2022-10-16T01:04:57;5.85;;;2.50;;
43248;SDS011;29216;51.248;6.808;2022-10-16T01:10:07;4.47;;;2.70;;
43248;SDS011;29216;51.248;6.808;2022-10-16T01:12:51;5.95;;;2.90;;
43248;SDS011;29216;51.248;6.808;2022-10-16T01:20:42;3.65;;;2.40;;
43248;SDS011;29216;51.248;6.808;2022-10-16T01:23:27;4.13;;;2.70;;
43248;SDS011;29216;51.248;6.808;2022-10-16T01:28:32;3.92;;;2.65;;
43248;SDS011;29216;51.248;6.808;2022-10-16T01:31:04;4.85;;;2.80;;
43248;SDS011;29216;51.248;6.808;2022-10-16T01:33:34;3.78;;;2.38;;
43248;SDS011;29216;51.248;6.808;2022-10-16T01:36:10;8.30;;;2.63;;
43248;SDS011;29216;51.248;6.808;2022-10-16T01:38:40;5.07;;;2.78;;
43248;SDS011;29216;51.248;6.808;2022-10-16T01:41:09;5.28;;;2.70;;
43248;SDS011;29216;51.248;6.808;2022-10-16T01:44:07;5.28;;;2.72;;
43248;SDS011;29216;51.248;6.808;2022-10-16T01:46:37;3.03;;;2.45;;
43248;SDS011;29216;51.248;6.808;2022-10-16T01:49:06;4.20;;;2.47;;
43248;SDS011;29216;51.248;6.808;2022-10-16T01:51:34;2.92;;;2.30;;
43248;SDS011;29216;51.248;6.808;2022-10-16T01:54:01;4.70;;;2.85;;
43248;SDS011;29216;51.248;6.808;2022-10-16T01:56:27;3.92;;;2.92;;
43248;SDS011;29216;51.248;6.808;2022-10-16T01:58:59;3.83;;;2.63;;
43248;SDS011;29216;51.248;6.808;2022-10-16T02:01:31;3.10;;;2.20;;
43248;SDS011;29216;51.248;6.808;2022-10-16T02:04:01;6.45;;;2.78;;
43248;SDS011;29216;51.248;6.808;2022-10-16T02:06:34;5.65;;;2.50;;
43248;SDS011;29216;51.248;6.808;2022-10-16T02:09:00;3.25;;;2.08;;
43248;SDS011;29216;51.248;6.808;2022-10-16T02:11:26;2.72;;;2.40;;
43248;SDS011;29216;51.248;6.808;2022-10-16T02:13:58;3.25;;;2.10;;
43248;SDS011;29216;51.248;6.808;2022-10-16T02:16:32;3.08;;;2.13;;
43248;SDS011;29216;51.248;6.808;2022-10-16T02:18:59;2.50;;;2.22;;
43248;SDS011;29216;51.248;6.808;2022-10-16T02:21:26;5.38;;;2.20;;
43248;SDS011;29216;51.248;6.808;2022-10-16T02:24:02;6.32;;;1.95;;
43248;SDS011;29216;51.248;6.808;2022-10-16T02:26:50;2.10;;;1.95;;
43248;SDS011;29216;51.248;6.808;2022-10-16T02:29:39;2.40;;;2.05;;
43248;SDS011;29216;51.248;6.808;2022-10-16T02:32:10;2.25;;;2.00;;
43248;SDS011;29216;51.248;6.808;2022-10-16T02:34:41;3.20;;;2.20;;
43248;SDS011;29216;51.248;6.808;2022-10-16T02:37:07;3.50;;;2.13;;
43248;SDS011;29216;51.248;6.808;2022-10-16T02:39:33;5.40;;;2.20;;
43248;SDS011;29216;51.248;6.808;2022-10-16T02:41:59;2.38;;;2.17;;
43248;SDS011;29216;51.248;6.808;2022-10-16T02:44:25;4.05;;;2.10;;
43248;SDS011;29216;51.248;6.808;2022-10-16T02:46:51;4.07;;;2.28;;
43248;SDS011;29216;51.248;6.808;2022-10-16T02:49:16;2.13;;;1.95;;
43248;SDS011;29216;51.248;6.808;2022-10-16T02:51:43;3.17;;;1.98;;
43248;SDS011;29216;51.248;6.808;2022-10-16T02:54:08;2.55;;;2.20;;
43248;SDS011;29216;51.248;6.808;2022-10-16T02:56:37;2.25;;;2.05;;
43248;SDS011;29216;51.248;6.808;2022-10-16T02:59:06;1.85;;;1.75;;
43248;SDS011;29216;51.248;6.808;2022-10-16T03:01:31;2.58;;;1.98;;
43248;SDS011;29216;51.248;6.808;2022-10-16T03:03:57;2.28;;;2.08;;
43248;SDS011;29216;51.248;6.808;2022-10-16T03:06:23;3.38;;;2.10;;
43248;SDS011;29216;51.248;6.808;2022-10-16T03:08:48;6.03;;;2.38;;
43248;SDS011;29216;51.248;6.808;2022-10-16T03:11:14;3.85;;;2.33;;
43248;SDS011;29216;51.248;6.808;2022-10-16T03:13:39;4.63;;;1.80;;
43248;SDS011;29216;51.248;6.808;2022-10-16T03:16:05;3.03;;;2.05;;
43248;SDS011;29216;51.248;6.808;2022-10-16T03:18:30;3.67;;;2.20;;
43248;SDS011;29216;51.248;6.808;2022-10-16T03:20:56;3.85;;;2.20;;
43248;SDS011;29216;51.248;6.808;2022-10-16T03:23:22;4.55;;;2.10;;
43248;SDS011;29216;51.248;6.808;2022-10-16T03:25:47;3.70;;;2.13;;
43248;SDS011;29216;51.248;6.808;2022-10-16T03:28:13;2.42;;;2.10;;
43248;SDS011;29216;51.248;6.808;2022-10-16T03:30:38;2.72;;;1.80;;
43248;SDS011;29216;51.248;6.808;2022-10-16T03:33:04;2.88;;;1.77;;
43248;SDS011;29216;51.248;6.808;2022-10-16T03:35:31;3.78;;;1.90;;
43248;SDS011;29216;51.248;6.808;2022-10-16T03:37:59;4.53;;;1.90;;
43248;SDS011;29216;51.248;6.808;2022-10-16T03:40:25;3.72;;;1.98;;
43248;SDS011;29216;51.248;6.808;2022-10-16T03:42:50;2.00;;;1.67;;
43248;SDS011;29216;51.248;6.808;2022-10-16T03:45:16;2.22;;;1.63;;
43248;SDS011;29216;51.248;6.808;2022-10-16T03:47:42;2.53;;;2.00;;
43248;SDS011;29216;51.248;6.808;2022-10-16T03:50:07;1.80;;;1.70;;
43248;SDS011;29216;51.248;6.808;2022-10-16T03:52:34;1.95;;;1.73;;
43248;SDS011;29216;51.248;6.808;2022-10-16T03:54:59;2.45;;;1.70;;
43248;SDS011;29216;51.248;6.808;2022-10-16T03:57:25;3.38;;;2.00;;
43248;SDS011;29216;51.248;6.808;2022-10-16T03:59:50;2.05;;;1.75;;
43248;SDS011;29216;51.248;6.808;2022-10-16T04:02:16;4.22;;;2.92;;
43248;SDS011;29216;51.248;6.808;2022-10-16T04:04:42;2.17;;;1.98;;
43248;SDS011;29216;51.248;6.808;2022-10-16T04:07:07;2.47;;;2.00;;
43248;SDS011;29216;51.248;6.808;2022-10-16T04:09:33;1.92;;;1.83;;
43248;SDS011;29216;51.248;6.808;2022-10-16T04:11:58;3.30;;;2.10;;
43248;SDS011;29216;51.248;6.808;2022-10-16T04:14:24;2.47;;;1.90;;
43248;SDS011;29216;51.248;6.808;2022-10-16T04:16:49;2.13;;;1.67;;
43248;SDS011;29216;51.248;6.808;2022-10-16T04:19:15;3.22;;;1.90;;
43248;SDS011;29216;51.248;6.808;2022-10-16T04:21:41;5.28;;;2.10;;
43248;SDS011;29216;51.248;6.808;2022-10-16T04:24:06;2.08;;;1.85;;
43248;SDS011;29216;51.248;6.808;2022-10-16T04:26:32;5.57;;;2.10;;
43248;SDS011;29216;51.248;6.808;2022-10-16T04:28:58;5.15;;;2.08;;
43248;SDS011;29216;51.248;6.808;2022-10-16T04:31:23;2.35;;;2.15;;
43248;SDS011;29216;51.248;6.808;2022-10-16T04:33:49;4.32;;;2.13;;
43248;SDS011;29216;51.248;6.808;2022-10-16T04:36:14;2.17;;;1.98;;
43248;SDS011;29216;51.248;6.808;2022-10-16T04:38:40;6.57;;;2.67;;
43248;SDS011;29216;51.248;6.808;2022-10-16T04:41:06;2.17;;;1.95;;
43248;SDS011;29216;51.248;6.808;2022-10-16T04:43:33;2.13;;;1.90;;
43248;SDS011;29216;51.248;6.808;2022-10-16T04:45:58;4.72;;;2.10;;
43248;SDS011;29216;51.248;6.808;2022-10-16T04:48:24;2.58;;;2.33;;
43248;SDS011;29216;51.248;6.808;2022-10-16T04:50:50;2.17;;;1.98;;
43248;SDS011;29216;51.248;6.808;2022-10-16T04:53:15;2.65;;;1.92;;
43248;SDS011;29216;51.248;6.808;2022-10-16T04:55:41;3.30;;;1.77;;
43248;SDS011;29216;51.248;6.808;2022-10-16T04:58:07;3.33;;;1.77;;
43248;SDS011;29216;51.248;6.808;2022-10-16T05:00:33;3.17;;;1.80;;
43248;SDS011;29216;51.248;6.808;2022-10-16T05:02:59;3.45;;;2.00;;
43248;SDS011;29216;51.248;6.808;2022-10-16T05:05:26;3.35;;;1.95;;
43248;SDS011;29216;51.248;6.808;2022-10-16T05:07:52;6.05;;;1.90;;
43248;SDS011;29216;51.248;6.808;2022-10-16T05:10:18;2.38;;;2.13;;
43248;SDS011;29216;51.248;6.808;2022-10-16T05:12:44;1.90;;;1.80;;
43248;SDS011;29216;51.248;6.808;2022-10-16T05:15:10;1.95;;;1.85;;
43248;SDS011;29216;51.248;6.808;2022-10-16T05:17:36;6.07;;;2.00;;
43248;SDS011;29216;51.248;6.808;2022-10-16T05:20:02;1.80;;;1.70;;
43248;SDS011;29216;51.248;6.808;2022-10-16T05:22:28;2.20;;;2.00;;
43248;SDS011;29216;51.248;6.808;2022-10-16T05:24:54;2.42;;;1.80;;
43248;SDS011;29216;51.248;6.808;2022-10-16T05:27:19;2.20;;;1.88;;
43248;SDS011;29216;51.248;6.808;2022-10-16T05:29:46;2.33;;;2.00;;
43248;SDS011;29216;51.248;6.808;2022-10-16T05:32:12;3.38;;;1.90;;
43248;SDS011;29216;51.248;6.808;2022-10-16T05:34:39;3.65;;;1.90;;
43248;SDS011;29216;51.248;6.808;2022-10-16T05:37:04;6.60;;;1.92;;
43248;SDS011;29216;51.248;6.808;2022-10-16T05:39:30;3.83;;;1.70;;
43248;SDS011;29216;51.248;6.808;2022-10-16T05:41:56;2.72;;;2.00;;
43248;SDS011;29216;51.248;6.808;2022-10-16T05:44:21;6.32;;;2.17;;
43248;SDS011;29216;51.248;6.808;2022-10-16T05:46:47;2.28;;;1.67;;
43248;SDS011;29216;51.248;6.808;2022-10-16T05:49:13;1.65;;;1.50;;
43248;SDS011;29216;51.248;6.808;2022-10-16T05:51:38;3.35;;;1.77;;
43248;SDS011;29216;51.248;6.808;2022-10-16T05:54:04;2.90;;;1.90;;
43248;SDS011;29216;51.248;6.808;2022-10-16T05:56:30;2.55;;;1.60;;
43248;SDS011;29216;51.248;6.808;2022-10-16T05:58:55;3.08;;;1.90;;
43248;SDS011;29216;51.248;6.808;2022-10-16T06:01:21;2.67;;;1.75;;
43248;SDS011;29216;51.248;6.808;2022-10-16T06:03:49;2.17;;;1.95;;
43248;SDS011;29216;51.248;6.808;2022-10-16T06:06:16;2.22;;;1.75;;
43248;SDS011;29216;51.248;6.808;2022-10-16T06:08:47;2.80;;;2.10;;
43248;SDS011;29216;51.248;6.808;2022-10-16T06:11:17;3.30;;;2.08;;
43248;SDS011;29216;51.248;6.808;2022-10-16T06:13:44;2.95;;;2.30;;
43248;SDS011;29216;51.248;6.808;2022-10-16T06:16:11;3.88;;;2.25;;
43248;SDS011;29216;51.248;6.808;2022-10-16T06:18:37;2.58;;;2.17;;
43248;SDS011;29216;51.248;6.808;2022-10-16T06:21:10;3.08;;;2.28;;
43248;SDS011;29216;51.248;6.808;2022-10-16T06:23:38;5.32;;;2.10;;
43248;SDS011;29216;51.248;6.808;2022-10-16T06:26:08;2.30;;;1.80;;
43248;SDS011;29216;51.248;6.808;2022-10-16T06:28:35;2.30;;;2.05;;
43248;SDS011;29216;51.248;6.808;2022-10-16T06:31:00;2.70;;;2.00;;
43248;SDS011;29216;51.248;6.808;2022-10-16T06:33:27;1.80;;;1.70;;
43248;SDS011;29216;51.248;6.808;2022-10-16T06:35:53;2.10;;;1.90;;
43248;SDS011;29216;51.248;6.808;2022-10-16T06:38:18;2.10;;;2.00;;
43248;SDS011;29216;51.248;6.808;2022-10-16T06:40:44;1.80;;;1.70;;
43248;SDS011;29216;51.248;6.808;2022-10-16T06:43:09;5.40;;;2.10;;
43248;SDS011;29216;51.248;6.808;2022-10-16T06:45:35;5.10;;;2.20;;
43248;SDS011;29216;51.248;6.808;2022-10-16T06:48:02;5.45;;;2.05;;
43248;SDS011;29216;51.248;6.808;2022-10-16T06:50:27;3.67;;;2.10;;
43248;SDS011;29216;51.248;6.808;2022-10-16T06:52:53;4.35;;;2.13;;
43248;SDS011;29216;51.248;6.808;2022-10-16T06:55:18;1.90;;;1.80;;
43248;SDS011;29216;51.248;6.808;2022-10-16T06:57:46;4.68;;;2.17;;
43248;SDS011;29216;51.248;6.808;2022-10-16T07:00:12;6.68;;;2.00;;
43248;SDS011;29216;51.248;6.808;2022-10-16T07:02:38;2.60;;;2.10;;
43248;SDS011;29216;51.248;6.808;2022-10-16T07:05:03;2.33;;;1.98;;
43248;SDS011;29216;51.248;6.808;2022-10-16T07:07:29;4.35;;;1.90;;
43248;SDS011;29216;51.248;6.808;2022-10-16T07:09:55;4.40;;;1.90;;
43248;SDS011;29216;51.248;6.808;2022-10-16T07:12:20;2.67;;;2.08;;
43248;SDS011;29216;51.248;6.808;2022-10-16T07:14:46;2.42;;;1.77;;
43248;SDS011;29216;51.248;6.808;2022-10-16T07:17:11;4.88;;;1.98;;
43248;SDS011;29216;51.248;6.808;2022-10-16T07:19:37;3.05;;;2.13;;
43248;SDS011;29216;51.248;6.808;2022-10-16T07:22:03;5.28;;;2.00;;
43248;SDS011;29216;51.248;6.808;2022-10-16T07:24:29;2.85;;;1.90;;
43248;SDS011;29216;51.248;6.808;2022-10-16T07:26:55;4.28;;;2.15;;
43248;SDS011;29216;51.248;6.808;2022-10-16T07:29:21;1.63;;;1.55;;
43248;SDS011;29216;51.248;6.808;2022-10-16T07:31:47;2.40;;;2.00;;
43248;SDS011;29216;51.248;6.808;2022-10-16T07:34:15;3.45;;;2.17;;
43248;SDS011;29216;51.248;6.808;2022-10-16T07:36:42;2.22;;;1.90;;
43248;SDS011;29216;51.248;6.808;2022-10-16T07:39:08;2.92;;;1.92;;
43248;SDS011;29216;51.248;6.808;2022-10-16T07:41:34;3.72;;;2.30;;
43248;SDS011;29216;51.248;6.808;2022-10-16T07:44:01;1.73;;;1.63;;
43248;SDS011;29216;51.248;6.808;2022-10-16T07:46:28;3.45;;;1.80;;
43248;SDS011;29216;51.248;6.808;2022-10-16T07:48:54;3.83;;;2.35;;
43248;SDS011;29216;51.248;6.808;2022-10-16T07:51:21;6.63;;;2.70;;
43248;SDS011;29216;51.248;6.808;2022-10-16T07:53:48;2.42;;;1.90;;
43248;SDS011;29216;51.248;6.808;2022-10-16T07:56:14;1.63;;;1.52;;
43248;SDS011;29216;51.248;6.808;2022-10-16T07:58:41;2.72;;;1.70;;
43248;SDS011;29216;51.248;6.808;2022-10-16T08:01:07;3.22;;;2.00;;
43248;SDS011;29216;51.248;6.808;2022-10-16T08:03:38;3.03;;;2.03;;
43248;SDS011;29216;51.248;6.808;2022-10-16T08:06:06;2.55;;;1.80;;
43248;SDS011;29216;51.248;6.808;2022-10-16T08:08:32;4.40;;;2.10;;
43248;SDS011;29216;51.248;6.808;2022-10-16T08:10:58;2.65;;;1.95;;
43248;SDS011;29216;51.248;6.808;2022-10-16T08:13:24;3.22;;;1.67;;
43248;SDS011;29216;51.248;6.808;2022-10-16T08:15:49;5.10;;;2.10;;
43248;SDS011;29216;51.248;6.808;2022-10-16T08:18:15;1.70;;;1.60;;
43248;SDS011;29216;51.248;6.808;2022-10-16T08:20:41;2.17;;;1.98;;
43248;SDS011;29216;51.248;6.808;2022-10-16T08:23:08;9.00;;;2.75;;
43248;SDS011;29216;51.248;6.808;2022-10-16T08:25:35;3.80;;;2.05;;
43248;SDS011;29216;51.248;6.808;2022-10-16T08:28:09;4.65;;;1.83;;
43248;SDS011;29216;51.248;6.808;2022-10-16T08:30:35;2.85;;;2.10;;
43248;SDS011;29216;51.248;6.808;2022-10-16T08:33:01;4.40;;;2.22;;
43248;SDS011;29216;51.248;6.808;2022-10-16T08:35:27;4.78;;;2.00;;
43248;SDS011;29216;51.248;6.808;2022-10-16T08:37:52;3.30;;;1.83;;
43248;SDS011;29216;51.248;6.808;2022-10-16T08:48:43;3.40;;;1.58;;
43248;SDS011;29216;51.248;6.808;2022-10-16T08:51:37;3.42;;;1.80;;
43248;SDS011;29216;51.248;6.808;2022-10-16T08:54:03;2.35;;;1.88;;
43248;SDS011;29216;51.248;6.808;2022-10-16T08:56:30;3.40;;;1.70;;
43248;SDS011;29216;51.248;6.808;2022-10-16T08:58:57;3.30;;;1.67;;
43248;SDS011;29216;51.248;6.808;2022-10-16T09:01:23;2.45;;;1.50;;
43248;SDS011;29216;51.248;6.808;2022-10-16T09:07:09;2.25;;;1.80;;
43248;SDS011;29216;51.248;6.808;2022-10-16T09:12:40;3.22;;;1.65;;
43248;SDS011;29216;51.248;6.808;2022-10-16T09:15:39;2.88;;;1.60;;
43248;SDS011;29216;51.248;6.808;2022-10-16T09:18:25;2.28;;;1.50;;
43248;SDS011;29216;51.248;6.808;2022-10-16T09:23:55;3.70;;;1.65;;
43248;SDS011;29216;51.248;6.808;2022-10-16T09:26:24;1.88;;;1.30;;
43248;SDS011;29216;51.248;6.808;2022-10-16T09:28:51;2.22;;;1.60;;
43248;SDS011;29216;51.248;6.808;2022-10-16T09:31:18;4.22;;;1.50;;
43248;SDS011;29216;51.248;6.808;2022-10-16T09:33:47;3.22;;;1.38;;
43248;SDS011;29216;51.248;6.808;2022-10-16T09:36:20;2.60;;;1.35;;
43248;SDS011;29216;51.248;6.808;2022-10-16T09:38:47;3.65;;;1.40;;
43248;SDS011;29216;51.248;6.808;2022-10-16T09:41:16;3.33;;;1.60;;
43248;SDS011;29216;51.248;6.808;2022-10-16T09:43:47;5.55;;;1.60;;
43248;SDS011;29216;51.248;6.808;2022-10-16T09:46:31;3.88;;;1.33;;
43248;SDS011;29216;51.248;6.808;2022-10-16T09:49:02;2.33;;;1.55;;
43248;SDS011;29216;51.248;6.808;2022-10-16T09:54:11;3.65;;;1.02;;
43248;SDS011;29216;51.248;6.808;2022-10-16T09:56:38;1.23;;;1.20;;
43248;SDS011;29216;51.248;6.808;2022-10-16T09:59:11;2.30;;;1.27;;
43248;SDS011;29216;51.248;6.808;2022-10-16T10:01:41;2.72;;;1.17;;
43248;SDS011;29216;51.248;6.808;2022-10-16T10:04:13;4.70;;;1.67;;
43248;SDS011;29216;51.248;6.808;2022-10-16T10:06:52;6.18;;;2.05;;
43248;SDS011;29216;51.248;6.808;2022-10-16T10:11:51;1.52;;;1.27;;
43248;SDS011;29216;51.248;6.808;2022-10-16T10:17:02;4.72;;;2.17;;
43248;SDS011;29216;51.248;6.808;2022-10-16T10:24:56;3.00;;;1.50;;
43248;SDS011;29216;51.248;6.808;2022-10-16T10:33:29;4.95;;;2.08;;
43248;SDS011;29216;51.248;6.808;2022-10-16T10:36:11;2.95;;;1.63;;
43248;SDS011;29216;51.248;6.808;2022-10-16T10:47:20;3.88;;;1.40;;
43248;SDS011;29216;51.248;6.808;2022-10-16T10:57:46;3.50;;;1.50;;
43248;SDS011;29216;51.248;6.808;2022-10-16T11:06:44;3.45;;;1.55;;
43248;SDS011;29216;51.248;6.808;2022-10-16T11:09:16;4.75;;;1.27;;
43248;SDS011;29216;51.248;6.808;2022-10-16T11:17:23;4.57;;;1.40;;
43248;SDS011;29216;51.248;6.808;2022-10-16T11:19:55;5.80;;;1.60;;
43248;SDS011;29216;51.248;6.808;2022-10-16T11:22:34;3.20;;;1.40;;
43248;SDS011;29216;51.248;6.808;2022-10-16T11:25:14;1.92;;;1.30;;
43248;SDS011;29216;51.248;6.808;2022-10-16T11:27:52;2.80;;;1.58;;
43248;SDS011;29216;51.248;6.808;2022-10-16T11:30:24;4.00;;;1.35;;
43248;SDS011;29216;51.248;6.808;2022-10-16T11:38:44;3.25;;;1.30;;
43248;SDS011;29216;51.248;6.808;2022-10-16T11:44:14;1.95;;;1.10;;
43248;SDS011;29216;51.248;6.808;2022-10-16T11:49:42;5.20;;;1.65;;
43248;SDS011;29216;51.248;6.808;2022-10-16T11:57:31;2.35;;;1.33;;
43248;SDS011;29216;51.248;6.808;2022-10-16T12:08:31;2.95;;;1.40;;
43248;SDS011;29216;51.248;6.808;2022-10-16T12:11:07;4.20;;;2.03;;
43248;SDS011;29216;51.248;6.808;2022-10-16T12:13:48;2.85;;;1.48;;
43248;SDS011;29216;51.248;6.808;2022-10-16T12:18:40;1.75;;;1.40;;
43248;SDS011;29216;51.248;6.808;2022-10-16T12:21:08;5.70;;;1.70;;
43248;SDS011;29216;51.248;6.808;2022-10-16T12:23:38;2.03;;;1.15;;
43248;SDS011;29216;51.248;6.808;2022-10-16T12:26:12;1.70;;;1.30;;
43248;SDS011;29216;51.248;6.808;2022-10-16T12:28:38;2.58;;;1.30;;
43248;SDS011;29216;51.248;6.808;2022-10-16T12:31:06;1.48;;;1.27;;
43248;SDS011;29216;51.248;6.808;2022-10-16T12:33:39;4.95;;;1.63;;
43248;SDS011;29216;51.248;6.808;2022-10-16T12:36:12;1.30;;;1.13;;
43248;SDS011;29216;51.248;6.808;2022-10-16T12:38:50;3.28;;;1.92;;
43248;SDS011;29216;51.248;6.808;2022-10-16T12:41:27;4.03;;;1.25;;
43248;SDS011;29216;51.248;6.808;2022-10-16T12:43:55;4.70;;;1.48;;
43248;SDS011;29216;51.248;6.808;2022-10-16T12:46:23;1.27;;;1.17;;
43248;SDS011;29216;51.248;6.808;2022-10-16T12:51:44;2.20;;;1.45;;
43248;SDS011;29216;51.248;6.808;2022-10-16T13:02:55;1.20;;;1.08;;
43248;SDS011;29216;51.248;6.808;2022-10-16T13:29:52;4.60;;;1.73;;
43248;SDS011;29216;51.248;6.808;2022-10-16T13:32:24;3.47;;;1.75;;
43248;SDS011;29216;51.248;6.808;2022-10-16T13:34:51;1.90;;;1.35;;
43248;SDS011;29216;51.248;6.808;2022-10-16T13:37:19;4.00;;;1.70;;
43248;SDS011;29216;51.248;6.808;2022-10-16T13:39:48;1.77;;;1.45;;
43248;SDS011;29216;51.248;6.808;2022-10-16T13:42:33;3.20;;;1.73;;
43248;SDS011;29216;51.248;6.808;2022-10-16T13:47:28;3.92;;;1.35;;
43248;SDS011;29216;51.248;6.808;2022-10-16T13:50:14;1.70;;;1.30;;
43248;SDS011;29216;51.248;6.808;2022-10-16T13:52:41;2.30;;;1.58;;
43248;SDS011;29216;51.248;6.808;2022-10-16T13:55:14;3.92;;;1.10;;
43248;SDS011;29216;51.248;6.808;2022-10-16T13:57:42;1.83;;;1.58;;
43248;SDS011;29216;51.248;6.808;2022-10-16T14:03:11;3.70;;;1.55;;
43248;SDS011;29216;51.248;6.808;2022-10-16T14:05:44;2.78;;;1.38;;
43248;SDS011;29216;51.248;6.808;2022-10-16T14:08:14;4.22;;;1.60;;
43248;SDS011;29216;51.248;6.808;2022-10-16T14:10:39;3.55;;;1.63;;
43248;SDS011;29216;51.248;6.808;2022-10-16T14:13:06;2.05;;;1.40;;
43248;SDS011;29216;51.248;6.808;2022-10-16T14:15:34;1.55;;;1.45;;
43248;SDS011;29216;51.248;6.808;2022-10-16T14:18:01;1.42;;;1.20;;
43248;SDS011;29216;51.248;6.808;2022-10-16T14:20:32;4.25;;;1.98;;
43248;SDS011;29216;51.248;6.808;2022-10-16T14:23:00;2.95;;;1.70;;
43248;SDS011;29216;51.248;6.808;2022-10-16T14:25:29;3.70;;;1.50;;
43248;SDS011;29216;51.248;6.808;2022-10-16T14:30:25;4.88;;;1.80;;
43248;SDS011;29216;51.248;6.808;2022-10-16T14:35:22;2.50;;;1.80;;
43248;SDS011;29216;51.248;6.808;2022-10-16T14:37:51;3.30;;;1.70;;
43248;SDS011;29216;51.248;6.808;2022-10-16T14:40:18;3.20;;;1.30;;
43248;SDS011;29216;51.248;6.808;2022-10-16T14:42:48;1.60;;;1.50;;
43248;SDS011;29216;51.248;6.808;2022-10-16T14:45:18;1.50;;;1.40;;
43248;SDS011;29216;51.248;6.808;2022-10-16T14:48:27;3.53;;;1.98;;
43248;SDS011;29216;51.248;6.808;2022-10-16T14:50:41;1.65;;;1.45;;
43248;SDS011;29216;51.248;6.808;2022-10-16T14:53:10;1.73;;;1.38;;
43248;SDS011;29216;51.248;6.808;2022-10-16T14:55:37;2.50;;;1.42;;
43248;SDS011;29216;51.248;6.808;2022-10-16T14:58:05;3.78;;;1.40;;
43248;SDS011;29216;51.248;6.808;2022-10-16T15:00:30;2.90;;;1.50;;
43248;SDS011;29216;51.248;6.808;2022-10-16T15:02:56;2.70;;;1.30;;
43248;SDS011;29216;51.248;6.808;2022-10-16T15:05:23;6.75;;;1.80;;
43248;SDS011;29216;51.248;6.808;2022-10-16T15:07:51;4.75;;;1.98;;
43248;SDS011;29216;51.248;6.808;2022-10-16T15:10:18;2.45;;;1.48;;
43248;SDS011;29216;51.248;6.808;2022-10-16T15:12:45;1.95;;;1.40;;
43248;SDS011;29216;51.248;6.808;2022-10-16T15:15:15;1.55;;;1.45;;
43248;SDS011;29216;51.248;6.808;2022-10-16T15:17:46;3.33;;;1.98;;
43248;SDS011;29216;51.248;6.808;2022-10-16T15:20:12;2.00;;;1.48;;
43248;SDS011;29216;51.248;6.808;2022-10-16T15:22:38;3.10;;;1.58;;
43248;SDS011;29216;51.248;6.808;2022-10-16T15:25:10;2.22;;;1.90;;
43248;SDS011;29216;51.248;6.808;2022-10-16T15:27:47;2.47;;;1.80;;
43248;SDS011;29216;51.248;6.808;2022-10-16T15:30:13;3.03;;;2.00;;
43248;SDS011;29216;51.248;6.808;2022-10-16T15:32:38;4.10;;;2.00;;
43248;SDS011;29216;51.248;6.808;2022-10-16T15:35:04;6.30;;;2.00;;
43248;SDS011;29216;51.248;6.808;2022-10-16T15:37:33;3.70;;;1.90;;
43248;SDS011;29216;51.248;6.808;2022-10-16T15:39:58;2.63;;;1.95;;
43248;SDS011;29216;51.248;6.808;2022-10-16T15:42:24;2.60;;;1.80;;
43248;SDS011;29216;51.248;6.808;2022-10-16T15:44:49;3.28;;;1.80;;
43248;SDS011;29216;51.248;6.808;2022-10-16T15:47:15;3.70;;;1.98;;
43248;SDS011;29216;51.248;6.808;2022-10-16T15:49:41;4.80;;;1.88;;
43248;SDS011;29216;51.248;6.808;2022-10-16T15:52:06;2.53;;;1.83;;
43248;SDS011;29216;51.248;6.808;2022-10-16T15:54:32;4.22;;;1.90;;
43248;SDS011;29216;51.248;6.808;2022-10-16T15:57:00;4.13;;;2.15;;
43248;SDS011;29216;51.248;6.808;2022-10-16T15:59:26;3.10;;;1.80;;
43248;SDS011;29216;51.248;6.808;2022-10-16T16:01:51;4.13;;;2.08;;
43248;SDS011;29216;51.248;6.808;2022-10-16T16:04:17;2.35;;;1.52;;
43248;SDS011;29216;51.248;6.808;2022-10-16T16:06:43;4.07;;;2.10;;
43248;SDS011;29216;51.248;6.808;2022-10-16T16:09:10;6.05;;;3.08;;
43248;SDS011;29216;51.248;6.808;2022-10-16T16:11:36;4.43;;;2.47;;
43248;SDS011;29216;51.248;6.808;2022-10-16T16:14:04;6.57;;;2.60;;
43248;SDS011;29216;51.248;6.808;2022-10-16T16:16:35;4.25;;;2.35;;
43248;SDS011;29216;51.248;6.808;2022-10-16T16:19:03;2.30;;;2.10;;
43248;SDS011;29216;51.248;6.808;2022-10-16T16:21:31;4.45;;;2.40;;
43248;SDS011;29216;51.248;6.808;2022-10-16T16:23:57;4.95;;;2.20;;
43248;SDS011;29216;51.248;6.808;2022-10-16T16:26:23;2.83;;;1.92;;
43248;SDS011;29216;51.248;6.808;2022-10-16T16:28:57;4.60;;;2.40;;
43248;SDS011;29216;51.248;6.808;2022-10-16T16:31:23;6.55;;;2.30;;
43248;SDS011;29216;51.248;6.808;2022-10-16T16:33:50;4.43;;;2.40;;
43248;SDS011;29216;51.248;6.808;2022-10-16T16:36:16;8.65;;;2.13;;
43248;SDS011;29216;51.248;6.808;2022-10-16T16:38:45;5.03;;;2.60;;
43248;SDS011;29216;51.248;6.808;2022-10-16T16:41:15;3.63;;;2.15;;
43248;SDS011;29216;51.248;6.808;2022-10-16T16:43:42;4.72;;;2.10;;
43248;SDS011;29216;51.248;6.808;2022-10-16T16:46:08;5.72;;;2.40;;
43248;SDS011;29216;51.248;6.808;2022-10-16T16:48:34;3.53;;;2.30;;
43248;SDS011;29216;51.248;6.808;2022-10-16T16:51:10;4.07;;;2.10;;
43248;SDS011;29216;51.248;6.808;2022-10-16T16:53:41;5.28;;;3.03;;
43248;SDS011;29216;51.248;6.808;2022-10-16T16:56:08;3.92;;;2.58;;
43248;SDS011;29216;51.248;6.808;2022-10-16T16:58:34;4.97;;;2.70;;
43248;SDS011;29216;51.248;6.808;2022-10-16T17:01:00;3.28;;;2.17;;
43248;SDS011;29216;51.248;6.808;2022-10-16T17:03:30;4.53;;;2.58;;
43248;SDS011;29216;51.248;6.808;2022-10-16T17:05:58;2.72;;;2.08;;
43248;SDS011;29216;51.248;6.808;2022-10-16T17:08:28;3.83;;;2.28;;
43248;SDS011;29216;51.248;6.808;2022-10-16T17:10:57;5.53;;;2.20;;
43248;SDS011;29216;51.248;6.808;2022-10-16T17:13:28;3.80;;;2.13;;
43248;SDS011;29216;51.248;6.808;2022-10-16T17:15:56;4.45;;;2.33;;
43248;SDS011;29216;51.248;6.808;2022-10-16T17:18:22;9.43;;;2.28;;
43248;SDS011;29216;51.248;6.808;2022-10-16T17:20:49;3.45;;;1.92;;
43248;SDS011;29216;51.248;6.808;2022-10-16T17:23:16;4.00;;;2.22;;
43248;SDS011;29216;51.248;6.808;2022-10-16T17:25:43;4.97;;;1.95;;
43248;SDS011;29216;51.248;6.808;2022-10-16T17:28:09;2.55;;;2.00;;
43248;SDS011;29216;51.248;6.808;2022-10-16T17:30:36;2.83;;;1.88;;